sensor_id;sensor_type;location;lat;lon;timestamp;temperature;humidity
16198;DHT22;8206;51.440;6.914;2022-12-16T00:00:06;-6.50;99.90
16198;DHT22;8206;51.440;6.914;2022-12-16T00:02:34;-6.50;99.90
16198;DHT22;8206;51.440;6.914;2022-12-16T00:05:02;-6.50;99.90
16198;DHT22;8206;51.440;6.914;2022-12-16T00:07:29;-6.50;99.90
16198;DHT22;8206;51.440;6.914;2022-12-16T00:09:56;-6.50;99.90
16198;DHT22;8206;51.440;6.914;2022-12-16T00:12:23;-6.50;99.90
16198;DHT22;8206;51.440;6.914;2022-12-16T00:14:50;-6.50;99.90
16198;DHT22;8206;51.440;6.914;2022-12-16T00:17:17;-6.60;99.90
16198;DHT22;8206;51.440;6.914;2022-12-16T00:19:43;-6.50;99.90
16198;DHT22;8206;51.440;6.914;2022-12-16T00:22:12;-6.50;99.90
16198;DHT22;8206;51.440;6.914;2022-12-16T00:24:38;-6.60;99.90
16198;DHT22;8206;51.440;6.914;2022-12-16T00:27:05;-6.60;99.90
16198;DHT22;8206;51.440;6.914;2022-12-16T00:29:32;-6.60;99.90
16198;DHT22;8206;51.440;6.914;2022-12-16T00:31:59;-6.60;99.90
16198;DHT22;8206;51.440;6.914;2022-12-16T00:34:27;-6.60;99.90
16198;DHT22;8206;51.440;6.914;2022-12-16T00:36:54;-6.60;99.90
16198;DHT22;8206;51.440;6.914;2022-12-16T00:39:22;-6.60;99.90
16198;DHT22;8206;51.440;6.914;2022-12-16T00:41:48;-6.60;99.90
16198;DHT22;8206;51.440;6.914;2022-12-16T00:44:15;-6.60;99.90
16198;DHT22;8206;51.440;6.914;2022-12-16T00:46:42;-6.70;99.90
16198;DHT22;8206;51.440;6.914;2022-12-16T00:49:09;-6.70;99.90
16198;DHT22;8206;51.440;6.914;2022-12-16T00:51:36;-6.70;99.90
16198;DHT22;8206;51.440;6.914;2022-12-16T00:54:03;-6.70;99.90
16198;DHT22;8206;51.440;6.914;2022-12-16T00:56:31;-6.70;99.90
16198;DHT22;8206;51.440;6.914;2022-12-16T00:58:57;-6.70;99.90
16198;DHT22;8206;51.440;6.914;2022-12-16T01:01:24;-6.70;99.90
16198;DHT22;8206;51.440;6.914;2022-12-16T01:03:51;-6.80;99.90
16198;DHT22;8206;51.440;6.914;2022-12-16T01:06:17;-6.70;99.90
16198;DHT22;8206;51.440;6.914;2022-12-16T01:08:44;-6.70;99.90
16198;DHT22;8206;51.440;6.914;2022-12-16T01:11:13;-6.70;99.90
16198;DHT22;8206;51.440;6.914;2022-12-16T01:13:42;-6.70;99.90
16198;DHT22;8206;51.440;6.914;2022-12-16T01:16:08;-6.70;99.90
16198;DHT22;8206;51.440;6.914;2022-12-16T01:18:35;-6.70;99.90
16198;DHT22;8206;51.440;6.914;2022-12-16T01:21:03;-6.70;99.90
16198;DHT22;8206;51.440;6.914;2022-12-16T01:23:30;-6.80;99.90
16198;DHT22;8206;51.440;6.914;2022-12-16T01:25:58;-6.70;99.90
16198;DHT22;8206;51.440;6.914;2022-12-16T01:28:26;-6.80;99.90
16198;DHT22;8206;51.440;6.914;2022-12-16T01:30:55;-6.80;99.90
16198;DHT22;8206;51.440;6.914;2022-12-16T01:33:26;-6.80;99.90
16198;DHT22;8206;51.440;6.914;2022-12-16T01:35:58;-6.70;99.90
16198;DHT22;8206;51.440;6.914;2022-12-16T01:38:24;-6.70;99.90
16198;DHT22;8206;51.440;6.914;2022-12-16T01:40:51;-6.70;99.90
16198;DHT22;8206;51.440;6.914;2022-12-16T01:43:19;-6.70;99.90
16198;DHT22;8206;51.440;6.914;2022-12-16T01:45:48;-6.70;99.90
16198;DHT22;8206;51.440;6.914;2022-12-16T01:48:20;-6.70;99.90
16198;DHT22;8206;51.440;6.914;2022-12-16T01:50:48;-6.70;99.90
16198;DHT22;8206;51.440;6.914;2022-12-16T01:53:16;-6.70;99.90
16198;DHT22;8206;51.440;6.914;2022-12-16T01:55:45;-6.70;99.90
16198;DHT22;8206;51.440;6.914;2022-12-16T01:58:17;-6.70;99.90
16198;DHT22;8206;51.440;6.914;2022-12-16T02:00:47;-6.70;99.90
16198;DHT22;8206;51.440;6.914;2022-12-16T02:03:14;-6.70;99.90
16198;DHT22;8206;51.440;6.914;2022-12-16T02:05:44;-6.70;99.90
16198;DHT22;8206;51.440;6.914;2022-12-16T02:08:12;-6.70;99.90
16198;DHT22;8206;51.440;6.914;2022-12-16T02:10:48;-6.70;99.90
16198;DHT22;8206;51.440;6.914;2022-12-16T02:13:21;-6.70;99.90
16198;DHT22;8206;51.440;6.914;2022-12-16T02:15:58;-6.70;99.90
16198;DHT22;8206;51.440;6.914;2022-12-16T02:18:40;-6.70;99.90
16198;DHT22;8206;51.440;6.914;2022-12-16T02:21:23;-6.70;99.90
16198;DHT22;8206;51.440;6.914;2022-12-16T02:27:32;-6.80;99.90
16198;DHT22;8206;51.440;6.914;2022-12-16T02:33:11;-6.90;99.90
16198;DHT22;8206;51.440;6.914;2022-12-16T02:35:42;-6.90;99.90
16198;DHT22;8206;51.440;6.914;2022-12-16T02:38:19;-6.90;99.90
16198;DHT22;8206;51.440;6.914;2022-12-16T02:40:52;-6.90;99.90
16198;DHT22;8206;51.440;6.914;2022-12-16T02:43:33;-6.90;99.90
16198;DHT22;8206;51.440;6.914;2022-12-16T02:46:04;-6.90;99.90
16198;DHT22;8206;51.440;6.914;2022-12-16T02:48:34;-6.90;99.90
16198;DHT22;8206;51.440;6.914;2022-12-16T02:51:01;-6.90;99.90
16198;DHT22;8206;51.440;6.914;2022-12-16T02:53:28;-6.90;99.90
16198;DHT22;8206;51.440;6.914;2022-12-16T02:56:03;-6.90;99.90
16198;DHT22;8206;51.440;6.914;2022-12-16T02:58:35;-6.90;99.90
16198;DHT22;8206;51.440;6.914;2022-12-16T03:01:10;-6.90;99.90
16198;DHT22;8206;51.440;6.914;2022-12-16T03:03:48;-6.90;99.90
16198;DHT22;8206;51.440;6.914;2022-12-16T03:06:17;-6.90;99.90
16198;DHT22;8206;51.440;6.914;2022-12-16T03:08:49;-6.90;99.90
16198;DHT22;8206;51.440;6.914;2022-12-16T03:11:17;-6.90;99.90
16198;DHT22;8206;51.440;6.914;2022-12-16T03:13:48;-6.90;99.90
16198;DHT22;8206;51.440;6.914;2022-12-16T03:16:19;-6.90;99.90
16198;DHT22;8206;51.440;6.914;2022-12-16T03:18:50;-7.00;99.90
16198;DHT22;8206;51.440;6.914;2022-12-16T03:21:20;-7.00;99.90
16198;DHT22;8206;51.440;6.914;2022-12-16T03:23:51;-7.00;99.90
16198;DHT22;8206;51.440;6.914;2022-12-16T03:26:23;-7.00;99.90
16198;DHT22;8206;51.440;6.914;2022-12-16T03:28:57;-7.00;99.90
16198;DHT22;8206;51.440;6.914;2022-12-16T03:31:30;-7.00;99.90
16198;DHT22;8206;51.440;6.914;2022-12-16T03:34:08;-6.90;99.90
16198;DHT22;8206;51.440;6.914;2022-12-16T03:36:38;-6.90;99.90
16198;DHT22;8206;51.440;6.914;2022-12-16T03:39:08;-6.90;99.90
16198;DHT22;8206;51.440;6.914;2022-12-16T03:41:35;-7.00;99.90
16198;DHT22;8206;51.440;6.914;2022-12-16T03:44:03;-7.00;99.90
16198;DHT22;8206;51.440;6.914;2022-12-16T03:46:31;-6.90;99.90
16198;DHT22;8206;51.440;6.914;2022-12-16T03:48:57;-7.00;99.90
16198;DHT22;8206;51.440;6.914;2022-12-16T03:51:26;-7.00;99.90
16198;DHT22;8206;51.440;6.914;2022-12-16T03:53:52;-7.00;99.90
16198;DHT22;8206;51.440;6.914;2022-12-16T03:56:19;-7.00;99.90
16198;DHT22;8206;51.440;6.914;2022-12-16T03:58:46;-7.00;99.90
16198;DHT22;8206;51.440;6.914;2022-12-16T04:01:13;-7.00;99.90
16198;DHT22;8206;51.440;6.914;2022-12-16T04:03:40;-7.00;99.90
16198;DHT22;8206;51.440;6.914;2022-12-16T04:06:07;-7.00;99.90
16198;DHT22;8206;51.440;6.914;2022-12-16T04:08:35;-7.00;99.90
16198;DHT22;8206;51.440;6.914;2022-12-16T04:11:02;-7.00;99.90
16198;DHT22;8206;51.440;6.914;2022-12-16T04:13:46;-7.00;99.90
16198;DHT22;8206;51.440;6.914;2022-12-16T04:16:30;-7.00;99.90
16198;DHT22;8206;51.440;6.914;2022-12-16T04:19:22;-6.90;99.90
16198;DHT22;8206;51.440;6.914;2022-12-16T04:22:11;-6.90;99.90
16198;DHT22;8206;51.440;6.914;2022-12-16T04:25:00;-7.00;99.90
16198;DHT22;8206;51.440;6.914;2022-12-16T04:27:27;-6.90;99.90
16198;DHT22;8206;51.440;6.914;2022-12-16T04:29:54;-6.90;99.90
16198;DHT22;8206;51.440;6.914;2022-12-16T04:32:39;-7.00;99.90
16198;DHT22;8206;51.440;6.914;2022-12-16T04:35:23;-7.00;99.90
16198;DHT22;8206;51.440;6.914;2022-12-16T04:38:07;-7.00;99.90
16198;DHT22;8206;51.440;6.914;2022-12-16T04:40:52;-7.00;99.90
16198;DHT22;8206;51.440;6.914;2022-12-16T04:43:37;-7.00;99.90
16198;DHT22;8206;51.440;6.914;2022-12-16T04:46:21;-7.10;99.90
16198;DHT22;8206;51.440;6.914;2022-12-16T04:49:05;-7.10;99.90
16198;DHT22;8206;51.440;6.914;2022-12-16T04:51:49;-7.10;99.90
16198;DHT22;8206;51.440;6.914;2022-12-16T04:54:33;-7.10;99.90
16198;DHT22;8206;51.440;6.914;2022-12-16T04:57:19;-7.10;99.90
16198;DHT22;8206;51.440;6.914;2022-12-16T05:00:04;-7.00;99.90
16198;DHT22;8206;51.440;6.914;2022-12-16T05:02:49;-7.00;99.90
16198;DHT22;8206;51.440;6.914;2022-12-16T05:05:33;-7.00;99.90
16198;DHT22;8206;51.440;6.914;2022-12-16T05:08:17;-7.00;99.90
16198;DHT22;8206;51.440;6.914;2022-12-16T05:11:01;-7.00;99.90
16198;DHT22;8206;51.440;6.914;2022-12-16T05:13:46;-7.00;99.90
16198;DHT22;8206;51.440;6.914;2022-12-16T05:16:31;-6.90;99.90
16198;DHT22;8206;51.440;6.914;2022-12-16T05:19:15;-6.90;99.90
16198;DHT22;8206;51.440;6.914;2022-12-16T05:21:59;-6.90;99.90
16198;DHT22;8206;51.440;6.914;2022-12-16T05:24:43;-6.90;99.90
16198;DHT22;8206;51.440;6.914;2022-12-16T05:27:27;-7.00;99.90
16198;DHT22;8206;51.440;6.914;2022-12-16T05:30:13;-6.90;99.90
16198;DHT22;8206;51.440;6.914;2022-12-16T05:32:57;-6.90;99.90
16198;DHT22;8206;51.440;6.914;2022-12-16T05:35:41;-6.90;99.90
16198;DHT22;8206;51.440;6.914;2022-12-16T05:38:25;-6.90;99.90
16198;DHT22;8206;51.440;6.914;2022-12-16T05:41:09;-6.90;99.90
16198;DHT22;8206;51.440;6.914;2022-12-16T05:43:53;-6.90;99.90
16198;DHT22;8206;51.440;6.914;2022-12-16T05:46:39;-7.00;99.90
16198;DHT22;8206;51.440;6.914;2022-12-16T05:49:23;-7.00;99.90
16198;DHT22;8206;51.440;6.914;2022-12-16T05:52:07;-7.00;99.90
16198;DHT22;8206;51.440;6.914;2022-12-16T05:54:51;-7.00;99.90
16198;DHT22;8206;51.440;6.914;2022-12-16T05:57:35;-7.10;99.90
16198;DHT22;8206;51.440;6.914;2022-12-16T06:00:20;-7.10;99.90
16198;DHT22;8206;51.440;6.914;2022-12-16T06:03:05;-7.00;99.90
16198;DHT22;8206;51.440;6.914;2022-12-16T06:05:49;-7.10;99.90
16198;DHT22;8206;51.440;6.914;2022-12-16T06:08:33;-7.10;99.90
16198;DHT22;8206;51.440;6.914;2022-12-16T06:11:17;-7.10;99.90
16198;DHT22;8206;51.440;6.914;2022-12-16T06:14:07;-7.10;99.90
16198;DHT22;8206;51.440;6.914;2022-12-16T06:16:51;-7.10;99.90
16198;DHT22;8206;51.440;6.914;2022-12-16T06:19:36;-7.10;99.90
16198;DHT22;8206;51.440;6.914;2022-12-16T06:22:32;-7.20;99.90
16198;DHT22;8206;51.440;6.914;2022-12-16T06:25:16;-7.20;99.90
16198;DHT22;8206;51.440;6.914;2022-12-16T06:28:01;-7.20;99.90
16198;DHT22;8206;51.440;6.914;2022-12-16T06:30:45;-7.20;99.90
16198;DHT22;8206;51.440;6.914;2022-12-16T06:33:29;-7.20;99.90
16198;DHT22;8206;51.440;6.914;2022-12-16T06:36:14;-7.20;99.90
16198;DHT22;8206;51.440;6.914;2022-12-16T06:38:58;-7.30;99.90
16198;DHT22;8206;51.440;6.914;2022-12-16T06:41:42;-7.30;99.90
16198;DHT22;8206;51.440;6.914;2022-12-16T06:44:26;-7.30;99.90
16198;DHT22;8206;51.440;6.914;2022-12-16T06:47:10;-7.30;99.90
16198;DHT22;8206;51.440;6.914;2022-12-16T06:49:55;-7.30;99.90
16198;DHT22;8206;51.440;6.914;2022-12-16T06:52:41;-7.30;99.90
16198;DHT22;8206;51.440;6.914;2022-12-16T06:55:26;-7.30;99.90
16198;DHT22;8206;51.440;6.914;2022-12-16T06:58:10;-7.30;99.90
16198;DHT22;8206;51.440;6.914;2022-12-16T07:00:54;-7.20;99.90
16198;DHT22;8206;51.440;6.914;2022-12-16T07:03:38;-7.20;99.90
16198;DHT22;8206;51.440;6.914;2022-12-16T07:06:22;-7.20;99.90
16198;DHT22;8206;51.440;6.914;2022-12-16T07:09:08;-7.20;99.90
16198;DHT22;8206;51.440;6.914;2022-12-16T07:11:52;-7.20;99.90
16198;DHT22;8206;51.440;6.914;2022-12-16T07:14:36;-7.20;99.90
16198;DHT22;8206;51.440;6.914;2022-12-16T07:17:20;-7.20;99.90
16198;DHT22;8206;51.440;6.914;2022-12-16T07:20:05;-7.10;99.90
16198;DHT22;8206;51.440;6.914;2022-12-16T07:22:49;-7.20;99.90
16198;DHT22;8206;51.440;6.914;2022-12-16T07:25:35;-7.20;99.90
16198;DHT22;8206;51.440;6.914;2022-12-16T07:28:19;-7.10;99.90
16198;DHT22;8206;51.440;6.914;2022-12-16T07:31:03;-7.10;99.90
16198;DHT22;8206;51.440;6.914;2022-12-16T07:33:48;-7.10;99.90
16198;DHT22;8206;51.440;6.914;2022-12-16T07:36:32;-7.00;99.90
16198;DHT22;8206;51.440;6.914;2022-12-16T07:39:16;-6.90;99.90
16198;DHT22;8206;51.440;6.914;2022-12-16T07:42:01;-6.70;99.90
16198;DHT22;8206;51.440;6.914;2022-12-16T07:44:45;-6.60;99.90
16198;DHT22;8206;51.440;6.914;2022-12-16T07:47:30;-6.50;99.90
16198;DHT22;8206;51.440;6.914;2022-12-16T07:50:14;-6.40;99.90
16198;DHT22;8206;51.440;6.914;2022-12-16T07:52:59;-6.30;99.90
16198;DHT22;8206;51.440;6.914;2022-12-16T07:55:44;-6.10;99.90
16198;DHT22;8206;51.440;6.914;2022-12-16T07:58:27;-5.90;99.90
16198;DHT22;8206;51.440;6.914;2022-12-16T08:01:11;-5.70;99.90
16198;DHT22;8206;51.440;6.914;2022-12-16T08:03:55;-5.50;99.90
16198;DHT22;8206;51.440;6.914;2022-12-16T08:06:39;-5.30;99.90
16198;DHT22;8206;51.440;6.914;2022-12-16T08:09:24;-5.20;99.90
16198;DHT22;8206;51.440;6.914;2022-12-16T08:12:08;-5.00;99.90
16198;DHT22;8206;51.440;6.914;2022-12-16T08:14:54;-4.90;99.90
16198;DHT22;8206;51.440;6.914;2022-12-16T08:17:41;-4.70;99.90
16198;DHT22;8206;51.440;6.914;2022-12-16T08:20:26;-4.50;99.90
16198;DHT22;8206;51.440;6.914;2022-12-16T08:23:10;-4.40;99.90
16198;DHT22;8206;51.440;6.914;2022-12-16T08:25:54;-4.20;99.90
16198;DHT22;8206;51.440;6.914;2022-12-16T08:28:38;-4.10;99.90
16198;DHT22;8206;51.440;6.914;2022-12-16T08:31:23;-3.90;99.90
16198;DHT22;8206;51.440;6.914;2022-12-16T08:34:08;-3.70;99.90
16198;DHT22;8206;51.440;6.914;2022-12-16T08:36:52;-3.60;99.90
16198;DHT22;8206;51.440;6.914;2022-12-16T08:39:36;-3.60;99.90
16198;DHT22;8206;51.440;6.914;2022-12-16T08:42:25;-3.50;99.90
16198;DHT22;8206;51.440;6.914;2022-12-16T08:45:10;-3.30;99.90
16198;DHT22;8206;51.440;6.914;2022-12-16T08:47:55;-3.30;99.90
16198;DHT22;8206;51.440;6.914;2022-12-16T08:50:39;-3.20;99.90
16198;DHT22;8206;51.440;6.914;2022-12-16T08:53:23;-3.10;99.90
16198;DHT22;8206;51.440;6.914;2022-12-16T08:56:07;-3.00;99.90
16198;DHT22;8206;51.440;6.914;2022-12-16T08:58:48;-2.90;99.90
16198;DHT22;8206;51.440;6.914;2022-12-16T09:01:32;-2.80;99.90
16198;DHT22;8206;51.440;6.914;2022-12-16T09:04:18;-2.70;99.90
16198;DHT22;8206;51.440;6.914;2022-12-16T09:07:02;-2.70;99.90
16198;DHT22;8206;51.440;6.914;2022-12-16T09:09:46;-2.60;99.90
16198;DHT22;8206;51.440;6.914;2022-12-16T09:12:30;-2.50;99.90
16198;DHT22;8206;51.440;6.914;2022-12-16T09:15:14;-2.50;99.90
16198;DHT22;8206;51.440;6.914;2022-12-16T09:17:59;-2.40;99.90
16198;DHT22;8206;51.440;6.914;2022-12-16T09:20:44;-2.30;99.90
16198;DHT22;8206;51.440;6.914;2022-12-16T09:23:28;-2.20;99.90
16198;DHT22;8206;51.440;6.914;2022-12-16T09:26:12;-2.20;99.90
16198;DHT22;8206;51.440;6.914;2022-12-16T09:28:56;-2.00;99.90
16198;DHT22;8206;51.440;6.914;2022-12-16T09:31:40;-1.90;99.90
16198;DHT22;8206;51.440;6.914;2022-12-16T09:34:25;-1.90;99.90
16198;DHT22;8206;51.440;6.914;2022-12-16T09:37:10;-1.80;99.90
16198;DHT22;8206;51.440;6.914;2022-12-16T09:39:54;-1.70;99.90
16198;DHT22;8206;51.440;6.914;2022-12-16T09:42:46;-1.60;99.90
16198;DHT22;8206;51.440;6.914;2022-12-16T09:45:52;-1.40;99.90
16198;DHT22;8206;51.440;6.914;2022-12-16T09:48:46;-1.40;99.90
16198;DHT22;8206;51.440;6.914;2022-12-16T09:51:31;-1.30;99.90
16198;DHT22;8206;51.440;6.914;2022-12-16T09:54:19;-1.20;99.90
16198;DHT22;8206;51.440;6.914;2022-12-16T09:57:06;-1.20;99.90
16198;DHT22;8206;51.440;6.914;2022-12-16T09:59:53;-1.20;99.90
16198;DHT22;8206;51.440;6.914;2022-12-16T10:02:39;-1.20;99.90
16198;DHT22;8206;51.440;6.914;2022-12-16T10:05:25;-1.20;99.90
16198;DHT22;8206;51.440;6.914;2022-12-16T10:08:19;-1.20;99.90
16198;DHT22;8206;51.440;6.914;2022-12-16T10:11:10;-1.20;99.90
16198;DHT22;8206;51.440;6.914;2022-12-16T10:14:13;-1.20;99.90
16198;DHT22;8206;51.440;6.914;2022-12-16T10:17:07;-1.20;99.90
16198;DHT22;8206;51.440;6.914;2022-12-16T10:19:58;-1.20;99.90
16198;DHT22;8206;51.440;6.914;2022-12-16T10:22:46;-1.20;99.90
16198;DHT22;8206;51.440;6.914;2022-12-16T10:25:40;-1.10;99.90
16198;DHT22;8206;51.440;6.914;2022-12-16T10:28:40;-1.00;99.90
16198;DHT22;8206;51.440;6.914;2022-12-16T10:31:25;-0.80;99.90
16198;DHT22;8206;51.440;6.914;2022-12-16T10:34:13;-0.80;99.90
16198;DHT22;8206;51.440;6.914;2022-12-16T10:36:59;-0.70;99.90
16198;DHT22;8206;51.440;6.914;2022-12-16T10:39:48;-0.60;99.90
16198;DHT22;8206;51.440;6.914;2022-12-16T10:42:39;-0.60;99.90
16198;DHT22;8206;51.440;6.914;2022-12-16T10:45:28;-0.50;99.90
16198;DHT22;8206;51.440;6.914;2022-12-16T10:48:16;-0.40;99.90
16198;DHT22;8206;51.440;6.914;2022-12-16T10:51:10;-0.40;99.90
16198;DHT22;8206;51.440;6.914;2022-12-16T10:54:07;-0.30;99.90
16198;DHT22;8206;51.440;6.914;2022-12-16T10:57:02;-0.20;99.90
16198;DHT22;8206;51.440;6.914;2022-12-16T10:59:48;-0.10;99.90
16198;DHT22;8206;51.440;6.914;2022-12-16T11:02:33;-0.10;99.90
16198;DHT22;8206;51.440;6.914;2022-12-16T11:05:38;0.00;99.90
16198;DHT22;8206;51.440;6.914;2022-12-16T11:08:26;0.00;99.90
16198;DHT22;8206;51.440;6.914;2022-12-16T11:11:20;0.30;99.90
16198;DHT22;8206;51.440;6.914;2022-12-16T11:14:20;0.50;99.90
16198;DHT22;8206;51.440;6.914;2022-12-16T11:17:17;0.60;99.90
16198;DHT22;8206;51.440;6.914;2022-12-16T11:20:11;0.70;99.90
16198;DHT22;8206;51.440;6.914;2022-12-16T11:23:16;0.70;99.90
16198;DHT22;8206;51.440;6.914;2022-12-16T11:26:07;0.90;99.90
16198;DHT22;8206;51.440;6.914;2022-12-16T11:29:04;0.90;99.90
16198;DHT22;8206;51.440;6.914;2022-12-16T11:31:52;0.80;99.90
16198;DHT22;8206;51.440;6.914;2022-12-16T11:34:37;0.80;99.90
16198;DHT22;8206;51.440;6.914;2022-12-16T11:37:27;0.80;99.90
16198;DHT22;8206;51.440;6.914;2022-12-16T11:40:14;0.70;99.90
16198;DHT22;8206;51.440;6.914;2022-12-16T11:43:01;0.70;99.90
16198;DHT22;8206;51.440;6.914;2022-12-16T11:45:47;0.80;99.90
16198;DHT22;8206;51.440;6.914;2022-12-16T11:48:37;0.60;99.90
16198;DHT22;8206;51.440;6.914;2022-12-16T11:51:24;0.70;99.90
16198;DHT22;8206;51.440;6.914;2022-12-16T11:54:14;0.50;99.90
16198;DHT22;8206;51.440;6.914;2022-12-16T11:57:01;0.50;99.90
16198;DHT22;8206;51.440;6.914;2022-12-16T11:59:51;0.40;99.90
16198;DHT22;8206;51.440;6.914;2022-12-16T12:02:39;0.50;99.90
16198;DHT22;8206;51.440;6.914;2022-12-16T12:05:28;0.50;99.90
16198;DHT22;8206;51.440;6.914;2022-12-16T12:08:18;0.50;99.90
16198;DHT22;8206;51.440;6.914;2022-12-16T12:11:25;0.50;99.90
16198;DHT22;8206;51.440;6.914;2022-12-16T12:14:16;0.50;99.90
16198;DHT22;8206;51.440;6.914;2022-12-16T12:17:12;0.40;99.90
16198;DHT22;8206;51.440;6.914;2022-12-16T12:20:08;0.40;99.90
16198;DHT22;8206;51.440;6.914;2022-12-16T12:23:03;0.50;99.90
16198;DHT22;8206;51.440;6.914;2022-12-16T12:25:59;0.50;99.90
16198;DHT22;8206;51.440;6.914;2022-12-16T12:28:50;0.50;99.90
16198;DHT22;8206;51.440;6.914;2022-12-16T12:31:42;0.40;99.90
16198;DHT22;8206;51.440;6.914;2022-12-16T12:34:36;0.40;99.90
16198;DHT22;8206;51.440;6.914;2022-12-16T12:37:27;0.40;99.90
16198;DHT22;8206;51.440;6.914;2022-12-16T12:40:22;0.30;99.90
16198;DHT22;8206;51.440;6.914;2022-12-16T12:43:10;0.30;99.90
16198;DHT22;8206;51.440;6.914;2022-12-16T12:46:03;0.30;99.90
16198;DHT22;8206;51.440;6.914;2022-12-16T12:48:53;0.20;99.90
16198;DHT22;8206;51.440;6.914;2022-12-16T12:51:47;0.20;99.90
16198;DHT22;8206;51.440;6.914;2022-12-16T12:54:40;0.10;99.90
16198;DHT22;8206;51.440;6.914;2022-12-16T12:57:27;0.10;99.90
16198;DHT22;8206;51.440;6.914;2022-12-16T13:00:15;0.00;99.90
16198;DHT22;8206;51.440;6.914;2022-12-16T13:03:05;0.00;99.90
16198;DHT22;8206;51.440;6.914;2022-12-16T13:05:50;0.10;99.90
16198;DHT22;8206;51.440;6.914;2022-12-16T13:08:54;0.00;99.90
16198;DHT22;8206;51.440;6.914;2022-12-16T13:11:39;0.00;99.90
16198;DHT22;8206;51.440;6.914;2022-12-16T13:15:02;0.00;99.90
16198;DHT22;8206;51.440;6.914;2022-12-16T13:21:42;-0.10;99.90
16198;DHT22;8206;51.440;6.914;2022-12-16T13:24:42;-0.10;99.90
16198;DHT22;8206;51.440;6.914;2022-12-16T13:27:28;-0.10;99.90
16198;DHT22;8206;51.440;6.914;2022-12-16T13:30:21;-0.10;99.90
16198;DHT22;8206;51.440;6.914;2022-12-16T13:33:07;-0.10;99.90
16198;DHT22;8206;51.440;6.914;2022-12-16T13:36:03;-0.10;99.90
16198;DHT22;8206;51.440;6.914;2022-12-16T13:38:50;-0.10;99.90
16198;DHT22;8206;51.440;6.914;2022-12-16T13:41:50;-0.20;99.90
16198;DHT22;8206;51.440;6.914;2022-12-16T13:44:55;-0.20;99.90
16198;DHT22;8206;51.440;6.914;2022-12-16T13:48:02;-0.20;99.90
16198;DHT22;8206;51.440;6.914;2022-12-16T13:50:49;-0.20;99.90
16198;DHT22;8206;51.440;6.914;2022-12-16T13:53:37;-0.30;99.90
16198;DHT22;8206;51.440;6.914;2022-12-16T13:56:27;-0.30;99.90
16198;DHT22;8206;51.440;6.914;2022-12-16T13:59:16;-0.30;99.90
16198;DHT22;8206;51.440;6.914;2022-12-16T14:02:13;-0.40;99.90
16198;DHT22;8206;51.440;6.914;2022-12-16T14:05:17;-0.40;99.90
16198;DHT22;8206;51.440;6.914;2022-12-16T14:08:04;-0.50;99.90
16198;DHT22;8206;51.440;6.914;2022-12-16T14:10:55;-0.50;99.90
16198;DHT22;8206;51.440;6.914;2022-12-16T14:13:42;-0.60;99.90
16198;DHT22;8206;51.440;6.914;2022-12-16T14:16:36;-0.70;99.90
16198;DHT22;8206;51.440;6.914;2022-12-16T14:19:29;-0.80;99.90
16198;DHT22;8206;51.440;6.914;2022-12-16T14:22:26;-0.90;99.90
16198;DHT22;8206;51.440;6.914;2022-12-16T14:25:15;-1.00;99.90
16198;DHT22;8206;51.440;6.914;2022-12-16T14:28:00;-1.10;99.90
16198;DHT22;8206;51.440;6.914;2022-12-16T14:30:44;-1.10;99.90
16198;DHT22;8206;51.440;6.914;2022-12-16T14:33:28;-1.00;99.90
16198;DHT22;8206;51.440;6.914;2022-12-16T14:36:21;-0.90;99.90
16198;DHT22;8206;51.440;6.914;2022-12-16T14:39:11;-0.80;99.90
16198;DHT22;8206;51.440;6.914;2022-12-16T14:41:56;-0.80;99.90
16198;DHT22;8206;51.440;6.914;2022-12-16T14:44:44;-0.70;99.90
16198;DHT22;8206;51.440;6.914;2022-12-16T14:47:29;-0.60;99.90
16198;DHT22;8206;51.440;6.914;2022-12-16T14:50:19;-0.70;99.90
16198;DHT22;8206;51.440;6.914;2022-12-16T14:53:17;-0.60;99.90
16198;DHT22;8206;51.440;6.914;2022-12-16T14:56:18;-0.60;99.90
16198;DHT22;8206;51.440;6.914;2022-12-16T14:59:16;-0.50;99.90
16198;DHT22;8206;51.440;6.914;2022-12-16T15:02:13;-0.50;99.90
16198;DHT22;8206;51.440;6.914;2022-12-16T15:05:01;-0.50;99.90
16198;DHT22;8206;51.440;6.914;2022-12-16T15:07:46;-0.50;99.90
16198;DHT22;8206;51.440;6.914;2022-12-16T15:10:32;-0.50;99.90
16198;DHT22;8206;51.440;6.914;2022-12-16T15:13:18;-0.50;99.90
16198;DHT22;8206;51.440;6.914;2022-12-16T15:16:04;-0.50;99.90
16198;DHT22;8206;51.440;6.914;2022-12-16T15:18:56;-0.60;99.90
16198;DHT22;8206;51.440;6.914;2022-12-16T15:21:41;-0.50;99.90
16198;DHT22;8206;51.440;6.914;2022-12-16T15:24:26;-0.50;99.90
16198;DHT22;8206;51.440;6.914;2022-12-16T15:27:22;-0.50;99.90
16198;DHT22;8206;51.440;6.914;2022-12-16T15:30:37;-0.50;99.90
16198;DHT22;8206;51.440;6.914;2022-12-16T15:33:22;-0.50;99.90
16198;DHT22;8206;51.440;6.914;2022-12-16T15:36:20;-0.40;99.90
16198;DHT22;8206;51.440;6.914;2022-12-16T15:39:18;-0.40;99.90
16198;DHT22;8206;51.440;6.914;2022-12-16T15:42:19;-0.50;99.90
16198;DHT22;8206;51.440;6.914;2022-12-16T15:45:05;-0.60;99.90
16198;DHT22;8206;51.440;6.914;2022-12-16T15:48:07;-0.70;99.90
16198;DHT22;8206;51.440;6.914;2022-12-16T15:50:54;-0.90;99.90
16198;DHT22;8206;51.440;6.914;2022-12-16T15:53:38;-0.80;99.90
16198;DHT22;8206;51.440;6.914;2022-12-16T15:56:24;-0.80;99.90
16198;DHT22;8206;51.440;6.914;2022-12-16T15:59:13;-0.80;99.90
16198;DHT22;8206;51.440;6.914;2022-12-16T16:02:05;-0.70;99.90
16198;DHT22;8206;51.440;6.914;2022-12-16T16:04:53;-0.90;99.90
16198;DHT22;8206;51.440;6.914;2022-12-16T16:07:38;-1.00;99.90
16198;DHT22;8206;51.440;6.914;2022-12-16T16:10:23;-0.90;99.90
16198;DHT22;8206;51.440;6.914;2022-12-16T16:13:08;-0.90;99.90
16198;DHT22;8206;51.440;6.914;2022-12-16T16:15:53;-0.90;99.90
16198;DHT22;8206;51.440;6.914;2022-12-16T16:18:39;-0.80;99.90
16198;DHT22;8206;51.440;6.914;2022-12-16T16:21:25;-0.80;99.90
16198;DHT22;8206;51.440;6.914;2022-12-16T16:24:09;-0.80;99.90
16198;DHT22;8206;51.440;6.914;2022-12-16T16:26:54;-0.80;99.90
16198;DHT22;8206;51.440;6.914;2022-12-16T16:29:38;-0.70;99.90
16198;DHT22;8206;51.440;6.914;2022-12-16T16:32:23;-0.70;99.90
16198;DHT22;8206;51.440;6.914;2022-12-16T16:35:07;-0.70;99.90
16198;DHT22;8206;51.440;6.914;2022-12-16T16:37:53;-0.70;99.90
16198;DHT22;8206;51.440;6.914;2022-12-16T16:40:38;-0.70;99.90
16198;DHT22;8206;51.440;6.914;2022-12-16T16:43:24;-0.70;99.90
16198;DHT22;8206;51.440;6.914;2022-12-16T16:46:21;-0.70;99.90
16198;DHT22;8206;51.440;6.914;2022-12-16T16:49:11;-0.70;99.90
16198;DHT22;8206;51.440;6.914;2022-12-16T16:51:55;-0.60;99.90
16198;DHT22;8206;51.440;6.914;2022-12-16T16:54:41;-0.60;99.90
16198;DHT22;8206;51.440;6.914;2022-12-16T16:57:26;-0.60;99.90
16198;DHT22;8206;51.440;6.914;2022-12-16T17:00:15;-0.60;99.90
16198;DHT22;8206;51.440;6.914;2022-12-16T17:03:00;-0.60;99.90
16198;DHT22;8206;51.440;6.914;2022-12-16T17:05:44;-0.50;99.90
16198;DHT22;8206;51.440;6.914;2022-12-16T17:08:28;-0.50;99.90
16198;DHT22;8206;51.440;6.914;2022-12-16T17:11:16;-0.50;99.90
16198;DHT22;8206;51.440;6.914;2022-12-16T17:14:01;-0.60;99.90
16198;DHT22;8206;51.440;6.914;2022-12-16T17:16:45;-0.60;99.90
16198;DHT22;8206;51.440;6.914;2022-12-16T17:19:29;-0.60;99.90
16198;DHT22;8206;51.440;6.914;2022-12-16T17:22:13;-0.60;99.90
16198;DHT22;8206;51.440;6.914;2022-12-16T17:24:58;-0.70;99.90
16198;DHT22;8206;51.440;6.914;2022-12-16T17:27:44;-0.70;99.90
16198;DHT22;8206;51.440;6.914;2022-12-16T17:30:28;-0.70;99.90
16198;DHT22;8206;51.440;6.914;2022-12-16T17:33:13;-0.70;99.90
16198;DHT22;8206;51.440;6.914;2022-12-16T17:35:57;-0.70;99.90
16198;DHT22;8206;51.440;6.914;2022-12-16T17:38:42;-0.80;99.90